createdAt,value
2023-02-01T00:01:12.028Z,6.40
2023-02-01T00:02:43.693Z,6.63
2023-02-01T00:04:16.769Z,6.82
2023-02-01T00:05:56.173Z,6.50
2023-02-01T00:07:27.755Z,6.88
2023-02-01T00:08:59.342Z,6.57
2023-02-01T00:10:30.984Z,6.63
2023-02-01T00:12:03.747Z,6.63
2023-02-01T00:13:36.226Z,7.35
2023-02-01T00:15:08.977Z,6.43
2023-02-01T00:16:40.559Z,6.28
2023-02-01T00:18:12.129Z,6.50
2023-02-01T00:19:45.066Z,6.82
2023-02-01T00:21:18.243Z,6.65
2023-02-01T00:22:49.807Z,6.20
2023-02-01T00:24:21.423Z,7.05
2023-02-01T00:25:53.120Z,6.68
2023-02-01T00:27:24.867Z,6.88
2023-02-01T00:28:56.480Z,5.93
2023-02-01T00:30:28.205Z,6.43
2023-02-01T00:31:59.855Z,6.28
2023-02-01T00:33:31.848Z,6.05
2023-02-01T00:35:05.824Z,6.35
2023-02-01T00:36:37.392Z,6.60
2023-02-01T00:38:08.970Z,5.90
2023-02-01T00:39:40.585Z,6.43
2023-02-01T00:41:13.256Z,6.10
2023-02-01T00:42:44.830Z,6.50
2023-02-01T00:44:16.452Z,6.10
2023-02-01T00:45:48.037Z,5.85
2023-02-01T00:47:20.951Z,6.07
2023-02-01T00:48:52.552Z,5.78
2023-02-01T00:50:25.458Z,6.25
2023-02-01T00:51:57.136Z,5.82
2023-02-01T00:53:28.787Z,6.30
2023-02-01T00:55:00.369Z,6.35
2023-02-01T00:56:31.976Z,5.68
2023-02-01T00:58:03.604Z,6.22
2023-02-01T00:59:35.174Z,6.00
2023-02-01T01:01:07.760Z,6.35
2023-02-01T01:02:39.407Z,5.93
2023-02-01T01:04:11.145Z,6.60
2023-02-01T01:05:44.415Z,6.15
2023-02-01T01:07:15.988Z,6.10
2023-02-01T01:08:47.636Z,5.97
2023-02-01T01:10:19.746Z,6.65
2023-02-01T01:11:53.643Z,6.50
2023-02-01T01:13:25.227Z,6.03
2023-02-01T01:14:56.817Z,6.35
2023-02-01T01:16:29.204Z,6.55
2023-02-01T01:18:00.792Z,6.75
2023-02-01T01:19:32.371Z,6.18
2023-02-01T01:21:06.586Z,6.93
2023-02-01T01:22:38.150Z,6.65
2023-02-01T01:24:09.852Z,6.32
2023-02-01T01:25:41.453Z,5.90
2023-02-01T01:27:13.052Z,6.30
2023-02-01T01:28:44.632Z,6.70
2023-02-01T01:30:17.199Z,6.72
2023-02-01T01:31:48.859Z,6.80
2023-02-01T01:33:20.491Z,6.35
2023-02-01T01:34:52.067Z,6.57
2023-02-01T01:36:25.115Z,6.50
2023-02-01T01:37:56.690Z,6.63
2023-02-01T01:39:28.306Z,6.22
2023-02-01T01:40:59.914Z,6.57
2023-02-01T01:42:31.545Z,6.22
2023-02-01T01:44:03.932Z,6.65
2023-02-01T01:45:35.626Z,6.55
2023-02-01T01:47:07.220Z,6.68
2023-02-01T01:48:38.806Z,6.32
2023-02-01T01:50:12.020Z,6.85
2023-02-01T01:51:47.211Z,6.25
2023-02-01T01:53:20.344Z,6.80
2023-02-01T01:54:52.579Z,6.03
2023-02-01T01:56:24.192Z,6.75
2023-02-01T01:57:56.967Z,6.10
2023-02-01T01:59:28.524Z,6.30
2023-02-01T02:01:00.272Z,5.95
2023-02-01T02:02:31.916Z,6.65
2023-02-01T02:04:03.503Z,6.53
2023-02-01T02:05:35.207Z,6.88
2023-02-01T02:07:10.636Z,6.63
2023-02-01T02:08:42.191Z,6.68
2023-02-01T02:10:14.380Z,6.97
2023-02-01T02:11:45.991Z,6.50
2023-02-01T02:13:17.722Z,6.60
2023-02-01T02:14:49.274Z,6.25
2023-02-01T02:16:28.103Z,6.78
2023-02-01T02:18:01.901Z,6.50
2023-02-01T02:19:45.583Z,6.70
2023-02-01T02:21:19.686Z,7.15
2023-02-01T02:23:17.491Z,7.25
2023-02-01T02:25:03.358Z,7.07
2023-02-01T02:27:23.881Z,6.88
2023-02-01T02:29:23.681Z,6.38
2023-02-01T02:31:14.335Z,6.78
2023-02-01T02:32:53.887Z,6.90
2023-02-01T02:34:27.141Z,6.53
2023-02-01T02:36:00.624Z,7.30
2023-02-01T02:37:35.224Z,7.13
2023-02-01T02:39:09.790Z,7.20
2023-02-01T02:40:45.878Z,6.97
2023-02-01T02:42:39.308Z,7.07
2023-02-01T02:44:32.349Z,7.18
2023-02-01T02:46:24.234Z,7.05
2023-02-01T02:47:57.833Z,7.55
2023-02-01T02:49:35.202Z,7.35
2023-02-01T02:51:26.762Z,7.38
2023-02-01T02:53:18.675Z,7.43
2023-02-01T02:54:51.878Z,7.57
2023-02-01T02:56:42.642Z,6.85
2023-02-01T02:58:33.014Z,7.55
2023-02-01T03:00:25.064Z,7.60
2023-02-01T03:02:15.739Z,7.72
2023-02-01T03:04:06.647Z,7.20
2023-02-01T03:05:41.714Z,7.90
2023-02-01T03:07:14.503Z,8.30
2023-02-01T03:08:47.179Z,7.38
2023-02-01T03:10:25.161Z,8.32
2023-02-01T03:12:16.694Z,7.65
2023-02-01T03:13:50.947Z,7.88
2023-02-01T03:15:23.163Z,7.72
2023-02-01T03:16:56.182Z,8.20
2023-02-01T03:18:32.037Z,7.55
2023-02-01T03:20:04.712Z,8.73
2023-02-01T03:21:39.121Z,8.52
2023-02-01T03:23:10.767Z,8.65
2023-02-01T03:24:43.516Z,8.80
2023-02-01T03:26:19.276Z,8.90
2023-02-01T03:27:53.036Z,8.07
2023-02-01T03:29:26.626Z,9.00
2023-02-01T03:30:58.216Z,8.88
2023-02-01T03:32:29.859Z,9.30
2023-02-01T03:34:01.414Z,9.20
2023-02-01T03:35:34.693Z,9.30
2023-02-01T03:37:09.476Z,8.80
2023-02-01T03:38:42.823Z,9.13
2023-02-01T03:40:14.392Z,9.02
2023-02-01T03:41:47.663Z,9.32
2023-02-01T03:43:19.745Z,9.43
2023-02-01T03:44:52.600Z,9.27
2023-02-01T03:46:28.865Z,9.48
2023-02-01T03:48:01.153Z,9.63
2023-02-01T03:49:35.048Z,8.68
2023-02-01T03:51:06.631Z,9.85
2023-02-01T03:52:41.110Z,8.70
2023-02-01T03:54:14.044Z,10.00
2023-02-01T03:55:45.654Z,9.25
2023-02-01T03:57:20.576Z,9.57
2023-02-01T03:59:01.120Z,9.20
2023-02-01T04:00:32.698Z,9.40
2023-02-01T04:02:04.361Z,8.93
2023-02-01T04:03:35.998Z,8.32
2023-02-01T04:05:08.270Z,9.40
2023-02-01T04:06:39.853Z,9.50
2023-02-01T04:08:12.770Z,9.05
2023-02-01T04:09:44.352Z,9.15
2023-02-01T04:11:16.004Z,9.40
2023-02-01T04:12:47.596Z,9.82
2023-02-01T04:14:19.348Z,9.23
2023-02-01T04:15:50.928Z,9.43
2023-02-01T04:17:22.601Z,9.57
2023-02-01T04:18:54.250Z,9.05
2023-02-01T04:20:25.945Z,9.85
2023-02-01T04:21:57.645Z,9.35
2023-02-01T04:23:30.615Z,9.25
2023-02-01T04:25:02.195Z,9.30
2023-02-01T04:26:33.828Z,9.45
2023-02-01T04:28:05.824Z,9.23
2023-02-01T04:29:37.435Z,8.88
2023-02-01T04:31:09.300Z,9.45
2023-02-01T04:32:40.917Z,8.98
2023-02-01T04:34:12.480Z,9.20
2023-02-01T04:35:44.131Z,9.20
2023-02-01T04:37:15.712Z,9.63
2023-02-01T04:38:48.698Z,9.13
2023-02-01T04:40:20.339Z,9.73
2023-02-01T04:41:52.030Z,8.88
2023-02-01T04:43:23.605Z,9.98
2023-02-01T04:44:55.202Z,9.88
2023-02-01T04:46:26.812Z,9.45
2023-02-01T04:47:58.411Z,10.05
2023-02-01T04:49:29.976Z,9.73
2023-02-01T04:51:01.573Z,9.80
2023-02-01T04:52:33.151Z,9.43
2023-02-01T04:54:06.050Z,9.63
2023-02-01T04:55:37.619Z,9.15
2023-02-01T04:57:09.275Z,9.93
2023-02-01T04:58:40.820Z,9.35
2023-02-01T05:00:14.163Z,9.80
2023-02-01T05:01:48.569Z,9.95
2023-02-01T05:03:20.515Z,9.43
2023-02-01T05:04:52.135Z,9.20
2023-02-01T05:06:23.808Z,9.57
2023-02-01T05:07:55.457Z,9.50
2023-02-01T05:09:28.393Z,9.55
2023-02-01T05:11:00.185Z,9.40
2023-02-01T05:12:50.264Z,9.40
2023-02-01T05:14:21.851Z,10.18
2023-02-01T05:15:53.424Z,10.07
2023-02-01T05:17:25.015Z,9.07
2023-02-01T05:18:56.601Z,9.80
2023-02-01T05:20:28.141Z,10.38
2023-02-01T05:21:59.778Z,10.02
2023-02-01T05:23:31.418Z,9.70
2023-02-01T05:25:06.821Z,9.88
2023-02-01T05:26:40.005Z,9.40
2023-02-01T05:28:11.610Z,10.10
2023-02-01T05:29:43.337Z,10.05
2023-02-01T05:31:15.011Z,9.38
2023-02-01T05:32:46.698Z,9.88
2023-02-01T05:34:18.329Z,9.55
2023-02-01T05:35:51.414Z,9.27
2023-02-01T05:37:23.007Z,9.07
2023-02-01T05:38:54.684Z,9.18
2023-02-01T05:40:27.612Z,9.65
2023-02-01T05:41:59.192Z,9.25
2023-02-01T05:43:30.807Z,8.93
2023-02-01T05:45:02.398Z,8.45
2023-02-01T05:46:34.496Z,8.70
2023-02-01T05:48:06.251Z,9.15
2023-02-01T05:49:37.872Z,8.85
2023-02-01T05:51:12.169Z,9.00
2023-02-01T05:52:43.771Z,9.30
2023-02-01T05:54:15.417Z,9.30
2023-02-01T05:55:48.397Z,9.27
2023-02-01T05:57:19.971Z,8.80
2023-02-01T05:58:51.547Z,9.45
2023-02-01T06:00:24.334Z,9.00
2023-02-01T06:01:56.272Z,9.45
2023-02-01T06:03:28.428Z,9.25
2023-02-01T06:05:00.029Z,9.15
2023-02-01T06:06:31.603Z,8.88
2023-02-01T06:08:03.354Z,8.40
2023-02-01T06:09:34.927Z,9.43
2023-02-01T06:11:07.980Z,8.60
2023-02-01T06:12:39.563Z,8.82
2023-02-01T06:14:11.139Z,8.55
2023-02-01T06:15:44.986Z,8.65
2023-02-01T06:17:16.833Z,9.07
2023-02-01T06:18:48.422Z,8.10
2023-02-01T06:20:20.390Z,8.50
2023-02-01T06:21:52.288Z,8.95
2023-02-01T06:23:24.751Z,9.27
2023-02-01T06:24:56.465Z,9.02
2023-02-01T06:26:30.302Z,8.93
2023-02-01T06:28:02.071Z,8.65
2023-02-01T06:29:33.712Z,9.30
2023-02-01T06:31:07.441Z,9.20
2023-02-01T06:32:40.356Z,8.77
2023-02-01T06:34:11.993Z,8.75
2023-02-01T06:35:45.212Z,9.43
2023-02-01T06:37:16.907Z,9.20
2023-02-01T06:38:48.567Z,8.57
2023-02-01T06:40:20.355Z,8.82
2023-02-01T06:41:53.311Z,8.75
2023-02-01T06:43:25.529Z,9.05
2023-02-01T06:44:57.232Z,9.07
2023-02-01T06:46:28.909Z,8.98
2023-02-01T06:48:01.472Z,8.30
2023-02-01T06:49:33.129Z,8.88
2023-02-01T06:51:05.382Z,8.75
2023-02-01T06:52:37.241Z,8.93
2023-02-01T06:54:08.817Z,8.95
2023-02-01T06:55:40.383Z,9.13
2023-02-01T06:57:13.387Z,9.05
2023-02-01T06:58:45.090Z,8.20
2023-02-01T07:00:17.605Z,8.95
2023-02-01T07:01:49.274Z,8.50
2023-02-01T07:03:20.987Z,9.02
2023-02-01T07:04:52.544Z,8.35
2023-02-01T07:06:24.120Z,8.93
2023-02-01T07:07:55.743Z,8.80
2023-02-01T07:09:27.397Z,8.77
2023-02-01T07:11:03.499Z,9.00
2023-02-01T07:12:36.866Z,8.90
2023-02-01T07:14:08.665Z,8.63
2023-02-01T07:15:40.249Z,9.05
2023-02-01T07:17:11.932Z,8.18
2023-02-01T07:18:43.564Z,8.38
2023-02-01T07:20:15.199Z,9.00
2023-02-01T07:21:46.778Z,8.95
2023-02-01T07:23:18.373Z,8.40
2023-02-01T07:24:49.955Z,8.52
2023-02-01T07:26:21.855Z,7.75
2023-02-01T07:27:54.922Z,8.13
2023-02-01T07:29:26.827Z,8.43
2023-02-01T07:31:03.426Z,9.60
2023-02-01T07:32:35.148Z,10.07
2023-02-01T07:34:06.780Z,8.75
2023-02-01T07:35:38.339Z,8.68
2023-02-01T07:37:10.012Z,8.43
2023-02-01T07:38:41.711Z,8.48
2023-02-01T07:40:13.414Z,8.70
2023-02-01T07:41:44.989Z,8.13
2023-02-01T07:43:17.988Z,8.60
2023-02-01T07:44:49.574Z,8.57
2023-02-01T07:46:21.391Z,8.15
2023-02-01T07:47:53.410Z,9.15
2023-02-01T07:49:25.048Z,8.70
2023-02-01T07:50:59.788Z,8.98
2023-02-01T07:52:31.499Z,8.38
2023-02-01T07:54:03.165Z,8.48
2023-02-01T07:55:35.837Z,8.73
2023-02-01T07:57:09.521Z,8.73
2023-02-01T07:58:42.601Z,8.90
2023-02-01T08:00:33.776Z,8.45
2023-02-01T08:02:05.382Z,9.00
2023-02-01T08:03:36.991Z,8.82
2023-02-01T08:05:08.966Z,8.73
2023-02-01T08:06:40.827Z,9.20
2023-02-01T08:08:12.447Z,9.75
2023-02-01T08:09:44.135Z,9.85
2023-02-01T08:11:15.840Z,9.98
2023-02-01T08:12:52.472Z,11.13
2023-02-01T08:14:25.428Z,13.15
2023-02-01T08:15:58.948Z,21.92
2023-02-01T08:17:31.276Z,17.98
2023-02-01T08:19:02.907Z,20.90
2023-02-01T08:20:36.450Z,12.50
2023-02-01T08:22:08.019Z,18.75
2023-02-01T08:23:40.181Z,13.70
2023-02-01T08:25:11.832Z,16.05
2023-02-01T08:26:43.540Z,14.32
2023-02-01T08:28:15.124Z,13.00
2023-02-01T08:29:49.702Z,13.88
2023-02-01T08:31:22.429Z,14.27
2023-02-01T08:32:54.055Z,12.57
2023-02-01T08:34:25.675Z,12.38
2023-02-01T08:35:57.246Z,13.25
2023-02-01T08:37:28.876Z,12.45
2023-02-01T08:39:00.795Z,11.93
2023-02-01T08:40:33.582Z,12.18
2023-02-01T08:42:23.517Z,13.30
2023-02-01T08:43:55.386Z,12.35
2023-02-01T08:45:33.101Z,10.98
2023-02-01T08:47:04.786Z,11.18
2023-02-01T08:48:36.538Z,12.20
2023-02-01T08:50:09.698Z,10.90
2023-02-01T08:51:41.271Z,10.93
2023-02-01T08:53:14.943Z,11.45
2023-02-01T08:54:46.599Z,11.52
2023-02-01T08:56:18.656Z,10.70
2023-02-01T08:57:50.284Z,11.23
2023-02-01T08:59:21.839Z,11.50
2023-02-01T09:00:54.953Z,12.13
2023-02-01T09:02:26.598Z,11.80
2023-02-01T09:03:58.290Z,11.35
2023-02-01T09:05:44.004Z,9.93
2023-02-01T09:07:20.269Z,12.07
2023-02-01T09:08:52.213Z,9.48
2023-02-01T09:10:34.693Z,10.70
2023-02-01T09:12:07.175Z,10.93
2023-02-01T09:13:38.790Z,10.63
2023-02-01T09:15:10.586Z,11.50
2023-02-01T09:16:43.641Z,10.68
2023-02-01T09:18:15.434Z,11.93
2023-02-01T09:19:47.009Z,12.65
2023-02-01T09:21:18.578Z,11.02
2023-02-01T09:22:50.243Z,11.68
2023-02-01T09:24:21.882Z,11.25
2023-02-01T09:25:53.473Z,11.13
2023-02-01T09:27:25.143Z,12.65
2023-02-01T09:28:56.707Z,11.73
2023-02-01T09:30:30.422Z,11.60
2023-02-01T09:32:04.860Z,10.50
2023-02-01T09:33:36.673Z,11.68
2023-02-01T09:36:49.279Z,10.75
2023-02-01T09:38:23.314Z,10.45
2023-02-01T09:39:55.245Z,9.95
2023-02-01T09:41:51.848Z,10.48
2023-02-01T09:43:31.010Z,9.48
2023-02-01T09:45:13.247Z,10.40
2023-02-01T09:46:45.165Z,10.30
2023-02-01T09:48:19.317Z,9.70
2023-02-01T09:49:53.915Z,9.90
2023-02-01T09:51:28.490Z,9.70
2023-02-01T09:53:03.859Z,8.98
2023-02-01T09:54:42.901Z,8.68
2023-02-01T09:56:27.841Z,9.70
2023-02-01T09:58:03.672Z,10.05
2023-02-01T09:59:38.995Z,10.25
2023-02-01T10:01:14.496Z,9.30
2023-02-01T10:02:49.038Z,9.95
2023-02-01T10:04:22.454Z,9.77
2023-02-01T10:06:27.875Z,9.00
2023-02-01T10:08:03.047Z,9.30
2023-02-01T10:09:51.633Z,9.18
2023-02-01T10:11:41.014Z,9.77
2023-02-01T10:18:53.461Z,9.25
2023-02-01T10:20:28.639Z,9.20
2023-02-01T10:22:01.780Z,9.82
2023-02-01T10:23:47.197Z,9.38
2023-02-01T10:25:20.576Z,7.95
2023-02-01T10:26:56.581Z,8.55
2023-02-01T10:28:33.982Z,9.18
2023-02-01T10:30:14.196Z,9.48
2023-02-01T10:31:46.029Z,8.32
2023-02-01T10:33:19.863Z,8.82
2023-02-01T10:34:53.527Z,8.82
2023-02-01T10:36:30.444Z,9.73
2023-02-01T10:38:03.578Z,8.93
2023-02-01T10:39:38.034Z,12.70
2023-02-01T10:41:12.984Z,13.05
2023-02-01T10:42:47.990Z,9.05
2023-02-01T10:44:21.501Z,8.98
2023-02-01T10:45:53.100Z,6.80
2023-02-01T10:47:24.870Z,8.20
2023-02-01T10:48:56.803Z,7.18
2023-02-01T10:50:35.751Z,7.97
2023-02-01T10:52:12.375Z,10.27
2023-02-01T10:53:47.033Z,7.95
2023-02-01T10:55:30.920Z,7.72
2023-02-01T10:57:02.539Z,7.65
2023-02-01T10:58:34.279Z,8.13
2023-02-01T11:00:20.187Z,7.20
2023-02-01T11:01:59.691Z,7.47
2023-02-01T11:03:44.832Z,8.48
2023-02-01T11:05:19.890Z,7.55
2023-02-01T11:06:53.579Z,6.80
2023-02-01T11:08:26.718Z,6.60
2023-02-01T11:11:54.635Z,7.40
2023-02-01T11:13:57.178Z,6.05
2023-02-01T11:15:31.713Z,7.00
2023-02-01T11:17:13.461Z,6.78
2023-02-01T11:18:45.047Z,6.28
2023-02-01T11:20:39.035Z,4.93
2023-02-01T11:22:46.555Z,6.13
2023-02-01T11:24:26.189Z,6.20
2023-02-01T11:26:04.356Z,6.10
2023-02-01T11:27:40.294Z,6.40
2023-02-01T11:29:18.566Z,7.25
2023-02-01T11:31:00.458Z,7.13
2023-02-01T11:32:33.208Z,5.60
2023-02-01T11:34:08.306Z,6.22
2023-02-01T11:35:40.965Z,6.50
2023-02-01T11:37:16.274Z,5.60
2023-02-01T11:39:25.142Z,5.80
2023-02-01T11:40:56.776Z,5.50
2023-02-01T11:42:29.254Z,5.30
2023-02-01T11:44:01.986Z,6.40
2023-02-01T11:45:35.752Z,6.20
2023-02-01T11:47:21.393Z,5.45
2023-02-01T11:48:53.523Z,5.35
2023-02-01T11:50:29.673Z,5.20
2023-02-01T11:52:08.030Z,5.20
2023-02-01T11:53:53.810Z,5.70
2023-02-01T11:55:36.069Z,4.82
2023-02-01T11:57:20.428Z,4.50
2023-02-01T11:59:02.940Z,4.72
2023-02-01T12:00:49.776Z,4.90
2023-02-01T12:02:50.994Z,4.40
2023-02-01T12:05:00.816Z,4.97
2023-02-01T12:06:37.097Z,4.18
2023-02-01T12:08:37.271Z,4.28
2023-02-01T12:10:18.588Z,4.30
2023-02-01T12:11:58.214Z,5.32
2023-02-01T12:13:39.738Z,4.28
2023-02-01T12:15:24.756Z,3.92
2023-02-01T12:17:10.111Z,4.40
2023-02-01T12:18:55.453Z,3.92
2023-02-01T12:20:49.903Z,4.18
2023-02-01T12:22:29.401Z,4.10
2023-02-01T12:24:30.607Z,4.25
2023-02-01T12:26:14.478Z,4.55
2023-02-01T12:28:04.107Z,4.47
2023-02-01T12:29:50.180Z,3.55
2023-02-01T12:31:29.510Z,4.25
2023-02-01T12:33:05.766Z,4.53
2023-02-01T12:34:52.843Z,4.47
2023-02-01T12:36:27.095Z,4.93
2023-02-01T12:38:06.367Z,4.20
2023-02-01T12:39:40.097Z,4.40
2023-02-01T12:41:45.796Z,4.88
2023-02-01T12:43:26.177Z,4.50
2023-02-01T12:45:00.857Z,4.53
2023-02-01T12:46:34.112Z,4.80
2023-02-01T12:48:19.467Z,5.00
2023-02-01T12:49:55.457Z,4.55
2023-02-01T12:51:28.753Z,4.82
2023-02-01T12:53:07.424Z,4.78
2023-02-01T12:54:41.481Z,5.13
2023-02-01T12:56:15.792Z,5.03
2023-02-01T12:57:51.279Z,4.72
2023-02-01T12:59:27.371Z,5.10
2023-02-01T13:01:00.805Z,5.32
2023-02-01T13:02:38.883Z,5.68
2023-02-01T13:04:13.341Z,5.10
2023-02-01T13:05:48.080Z,5.40
2023-02-01T13:07:21.156Z,5.30
2023-02-01T13:09:03.995Z,5.75
2023-02-01T13:10:36.394Z,4.90
2023-02-01T13:12:13.605Z,5.22
2023-02-01T13:13:49.102Z,5.60
2023-02-01T13:15:24.207Z,5.18
2023-02-01T13:16:59.937Z,5.55
2023-02-01T13:18:35.068Z,5.22
2023-02-01T13:20:10.958Z,5.47
2023-02-01T13:21:44.329Z,5.20
2023-02-01T13:23:20.204Z,5.25
2023-02-01T13:24:53.035Z,5.28
2023-02-01T13:26:24.660Z,5.40
2023-02-01T13:27:56.600Z,5.80
2023-02-01T13:29:28.373Z,5.78
2023-02-01T13:31:29.238Z,5.13
2023-02-01T13:33:53.355Z,4.90
2023-02-01T13:35:23.542Z,4.63
2023-02-01T13:37:05.759Z,4.00
2023-02-01T13:39:08.413Z,3.50
2023-02-01T13:40:41.975Z,6.57
2023-02-01T13:42:16.182Z,5.03
2023-02-01T13:43:49.737Z,4.93
2023-02-01T13:45:23.087Z,3.80
2023-02-01T13:46:59.863Z,5.90
2023-02-01T13:48:37.121Z,5.25
2023-02-01T13:50:14.248Z,4.38
2023-02-01T13:51:47.420Z,3.70
2023-02-01T13:53:21.853Z,5.05
2023-02-01T13:55:09.331Z,3.90
2023-02-01T13:56:42.287Z,4.22
2023-02-01T13:58:20.309Z,3.85
2023-02-01T14:00:08.460Z,3.80
2023-02-01T14:01:44.387Z,5.25
2023-02-01T14:03:20.184Z,4.10
2023-02-01T14:04:54.565Z,3.55
2023-02-01T14:06:47.135Z,3.85
2023-02-01T14:08:23.469Z,6.47
2023-02-01T14:09:55.148Z,7.78
2023-02-01T14:11:38.060Z,7.70
2023-02-01T14:13:13.609Z,4.45
2023-02-01T14:14:47.057Z,4.70
2023-02-01T14:16:18.886Z,4.40
2023-02-01T14:17:52.931Z,4.45
2023-02-01T14:19:26.659Z,4.30
2023-02-01T14:21:22.038Z,4.00
2023-02-01T14:23:03.952Z,4.78
2023-02-01T14:24:35.777Z,4.57
2023-02-01T14:26:18.842Z,4.25
2023-02-01T14:27:50.444Z,4.55
2023-02-01T14:29:28.073Z,5.38
2023-02-01T14:31:02.636Z,4.35
2023-02-01T14:32:35.773Z,4.20
2023-02-01T14:34:13.994Z,4.35
2023-02-01T14:35:54.736Z,3.10
2023-02-01T14:37:28.277Z,4.10
2023-02-01T14:39:00.027Z,4.55
2023-02-01T14:40:31.900Z,4.70
2023-02-01T14:42:06.017Z,4.10
2023-02-01T14:43:50.581Z,4.18
2023-02-01T14:45:52.357Z,3.80
2023-02-01T14:47:34.166Z,3.05
2023-02-01T14:49:06.607Z,4.40
2023-02-01T14:50:38.994Z,3.90
2023-02-01T14:52:14.415Z,3.80
2023-02-01T14:53:47.658Z,3.83
2023-02-01T14:55:26.638Z,3.50
2023-02-01T14:56:58.381Z,4.05
2023-02-01T14:58:36.881Z,4.15
2023-02-01T15:00:17.492Z,3.33
2023-02-01T15:01:51.386Z,3.45
2023-02-01T15:03:41.117Z,3.67
2023-02-01T15:05:30.701Z,4.22
2023-02-01T15:07:08.058Z,3.42
2023-02-01T15:08:41.190Z,3.80
2023-02-01T15:10:12.770Z,3.28
2023-02-01T15:12:01.984Z,3.60
2023-02-01T15:13:33.604Z,2.90
2023-02-01T15:15:12.679Z,3.30
2023-02-01T15:16:50.777Z,3.53
2023-02-01T15:18:23.058Z,3.47
2023-02-01T15:19:54.904Z,3.45
2023-02-01T15:21:28.679Z,3.30
2023-02-01T15:23:03.492Z,3.50
2023-02-01T15:24:36.636Z,3.65
2023-02-01T15:26:08.488Z,3.03
2023-02-01T15:27:40.134Z,3.95
2023-02-01T15:29:13.085Z,3.60
2023-02-01T15:30:53.297Z,3.42
2023-02-01T15:32:32.423Z,3.38
2023-02-01T15:34:04.045Z,3.15
2023-02-01T15:35:43.364Z,3.53
2023-02-01T15:37:19.984Z,3.50
2023-02-01T15:38:56.221Z,2.92
2023-02-01T15:40:29.520Z,3.85
2023-02-01T15:42:03.048Z,3.40
2023-02-01T15:44:10.229Z,3.60
2023-02-01T15:45:41.916Z,3.60
2023-02-01T15:47:16.067Z,3.50
2023-02-01T15:48:48.753Z,3.92
2023-02-01T15:50:22.314Z,3.78
2023-02-01T15:51:55.035Z,3.35
2023-02-01T15:53:31.881Z,3.78
2023-02-01T15:55:04.818Z,3.42
2023-02-01T15:56:39.263Z,3.28
2023-02-01T15:58:16.392Z,4.40
2023-02-01T15:59:48.438Z,3.60
2023-02-01T16:01:20.735Z,3.45
2023-02-01T16:02:53.105Z,3.63
2023-02-01T16:04:27.586Z,3.67
2023-02-01T16:06:00.312Z,3.45
2023-02-01T16:07:33.264Z,3.75
2023-02-01T16:09:11.288Z,3.65
2023-02-01T16:10:44.232Z,3.83
2023-02-01T16:12:24.798Z,3.63
2023-02-01T16:13:56.418Z,4.00
2023-02-01T16:15:30.396Z,3.90
2023-02-01T16:17:02.028Z,3.90
2023-02-01T16:18:34.011Z,3.83
2023-02-01T16:20:06.545Z,4.97
2023-02-01T16:21:38.208Z,6.18
2023-02-01T16:23:10.501Z,8.48
2023-02-01T16:24:42.136Z,5.38
2023-02-01T16:26:13.842Z,4.95
2023-02-01T16:27:46.799Z,5.63
2023-02-01T16:29:18.983Z,6.95
2023-02-01T16:30:50.589Z,5.93
2023-02-01T16:32:22.306Z,5.13
2023-02-01T16:33:53.949Z,4.68
2023-02-01T16:35:26.798Z,4.65
2023-02-01T16:36:58.544Z,4.95
2023-02-01T16:38:30.204Z,3.33
2023-02-01T16:40:01.787Z,4.60
2023-02-01T16:41:33.399Z,3.80
2023-02-01T16:43:12.267Z,3.58
2023-02-01T16:44:44.166Z,3.38
2023-02-01T16:46:17.240Z,4.05
2023-02-01T16:47:53.490Z,3.65
2023-02-01T16:49:25.228Z,3.67
2023-02-01T16:50:58.260Z,3.70
2023-02-01T16:52:29.912Z,3.33
2023-02-01T16:54:01.689Z,4.47
2023-02-01T16:55:33.326Z,3.65
2023-02-01T16:57:05.548Z,3.58
2023-02-01T16:58:42.076Z,3.42
2023-02-01T17:00:24.577Z,4.10
2023-02-01T17:01:56.887Z,3.70
2023-02-01T17:03:28.489Z,3.60
2023-02-01T17:05:00.111Z,3.80
2023-02-01T17:06:33.504Z,3.20
2023-02-01T17:08:06.644Z,3.80
2023-02-01T17:09:38.367Z,3.08
2023-02-01T17:11:10.754Z,3.47
2023-02-01T17:12:42.400Z,3.60
2023-02-01T17:14:17.188Z,3.50
2023-02-01T17:15:50.395Z,3.45
2023-02-01T17:17:32.809Z,3.28
2023-02-01T17:19:52.859Z,3.80
2023-02-01T17:21:25.760Z,3.92
2023-02-01T17:22:57.685Z,3.20
2023-02-01T17:24:42.311Z,3.30
2023-02-01T17:26:19.496Z,3.30
2023-02-01T17:27:51.107Z,3.22
2023-02-01T17:29:24.614Z,3.42
2023-02-01T17:30:56.332Z,3.58
2023-02-01T17:32:28.044Z,3.40
2023-02-01T17:34:00.738Z,3.40
2023-02-01T17:35:32.521Z,3.60
2023-02-01T17:37:06.966Z,3.20
2023-02-01T17:38:38.563Z,3.65
2023-02-01T17:40:12.665Z,3.42
2023-02-01T17:41:44.287Z,3.13
2023-02-01T17:43:20.954Z,3.50
2023-02-01T17:44:58.245Z,3.75
2023-02-01T17:46:30.170Z,3.50
2023-02-01T17:48:02.102Z,3.05
2023-02-01T17:49:35.807Z,3.15
2023-02-01T17:51:18.155Z,3.22
2023-02-01T17:52:58.948Z,3.65
2023-02-01T17:54:30.568Z,3.10
2023-02-01T17:56:02.235Z,3.20
2023-02-01T17:57:36.872Z,3.47
2023-02-01T17:59:08.592Z,3.38
2023-02-01T18:00:41.682Z,3.03
2023-02-01T18:02:18.552Z,3.47
2023-02-01T18:03:50.888Z,3.53
2023-02-01T18:05:24.148Z,3.00
2023-02-01T18:06:55.981Z,3.10
2023-02-01T18:08:29.427Z,3.10
2023-02-01T18:10:06.843Z,3.10
2023-02-01T18:11:44.971Z,3.30
2023-02-01T18:13:16.659Z,3.03
2023-02-01T18:14:48.327Z,3.40
2023-02-01T18:16:22.173Z,2.83
2023-02-01T18:17:54.003Z,3.15
2023-02-01T18:19:29.767Z,3.80
2023-02-01T18:21:01.407Z,3.38
2023-02-01T18:22:33.587Z,3.00
2023-02-01T18:24:05.851Z,2.95
2023-02-01T18:25:38.662Z,2.45
2023-02-01T18:27:10.302Z,3.50
2023-02-01T18:28:42.564Z,3.58
2023-02-01T18:30:14.488Z,2.92
2023-02-01T18:31:49.429Z,3.30
2023-02-01T18:33:21.262Z,2.92
2023-02-01T18:34:52.864Z,3.50
2023-02-01T18:36:24.511Z,3.50
2023-02-01T18:37:56.582Z,3.33
2023-02-01T18:39:28.239Z,3.42
2023-02-01T18:41:01.156Z,3.35
2023-02-01T18:42:32.789Z,3.10
2023-02-01T18:44:04.593Z,2.92
2023-02-01T18:45:37.073Z,2.97
2023-02-01T18:47:10.680Z,3.83
2023-02-01T18:48:42.561Z,2.65
2023-02-01T18:50:14.227Z,2.95
2023-02-01T18:51:46.658Z,2.90
2023-02-01T18:53:23.905Z,2.90
2023-02-01T18:55:00.074Z,3.22
2023-02-01T18:56:31.989Z,2.83
2023-02-01T18:58:04.532Z,3.25
2023-02-01T18:59:36.285Z,3.00
2023-02-01T19:01:14.244Z,3.10
2023-02-01T19:02:47.709Z,3.50
2023-02-01T19:04:25.619Z,3.03
2023-02-01T19:05:57.905Z,2.90
2023-02-01T19:07:29.533Z,2.85
2023-02-01T19:09:01.125Z,3.17
2023-02-01T19:10:33.736Z,3.50
2023-02-01T19:12:05.602Z,4.07
2023-02-01T19:13:37.193Z,3.08
2023-02-01T19:15:12.907Z,3.33
2023-02-01T19:16:44.598Z,3.38
2023-02-01T19:18:20.236Z,3.20
2023-02-01T19:19:52.377Z,2.72
2023-02-01T19:21:24.025Z,2.97
2023-02-01T19:22:55.662Z,3.42
2023-02-01T19:24:28.254Z,3.47
2023-02-01T19:25:59.902Z,3.40
2023-02-01T19:27:31.490Z,3.28
2023-02-01T19:29:03.104Z,3.60
2023-02-01T19:30:34.760Z,3.15
2023-02-01T19:32:06.409Z,3.20
2023-02-01T19:33:39.757Z,3.10
2023-02-01T19:35:13.209Z,3.08
2023-02-01T19:36:44.850Z,3.13
2023-02-01T19:38:16.441Z,3.13
2023-02-01T19:39:47.995Z,3.35
2023-02-01T19:41:19.601Z,3.00
2023-02-01T19:42:51.184Z,3.45
2023-02-01T19:44:22.971Z,3.20
2023-02-01T19:45:54.722Z,3.20
2023-02-01T19:47:26.282Z,3.10
2023-02-01T19:48:59.474Z,3.40
2023-02-01T19:50:31.064Z,3.13
2023-02-01T19:52:02.696Z,2.95
2023-02-01T19:53:34.366Z,3.63
2023-02-01T19:55:06.532Z,3.10
2023-02-01T19:56:38.109Z,3.58
2023-02-01T19:58:09.743Z,3.33
2023-02-01T19:59:41.403Z,3.15
2023-02-01T20:01:13.292Z,3.50
2023-02-01T20:02:46.202Z,3.10
2023-02-01T20:04:19.306Z,3.50
2023-02-01T20:05:51.391Z,3.30
2023-02-01T20:07:23.023Z,3.03
2023-02-01T20:08:54.911Z,2.85
2023-02-01T20:10:26.532Z,3.10
2023-02-01T20:11:58.170Z,3.33
2023-02-01T20:13:29.872Z,2.83
2023-02-01T20:15:02.199Z,3.28
2023-02-01T20:16:34.350Z,3.42
2023-02-01T20:18:06.051Z,3.05
2023-02-01T20:19:39.016Z,2.97
2023-02-01T20:21:10.638Z,3.33
2023-02-01T20:22:45.081Z,3.30
2023-02-01T20:24:17.380Z,3.08
2023-02-01T20:25:49.892Z,3.13
2023-02-01T20:27:22.671Z,2.60
2023-02-01T20:28:55.701Z,3.25
2023-02-01T20:30:32.098Z,3.05
2023-02-01T20:32:04.145Z,2.58
2023-02-01T20:33:35.754Z,3.17
2023-02-01T20:35:10.921Z,3.00
2023-02-01T20:36:44.960Z,2.70
2023-02-01T20:38:16.605Z,3.10
2023-02-01T20:39:50.751Z,3.00
2023-02-01T20:41:22.464Z,3.00
2023-02-01T20:42:54.126Z,2.60
2023-02-01T20:44:25.745Z,3.58
2023-02-01T20:45:57.351Z,3.10
2023-02-01T20:47:29.314Z,2.78
2023-02-01T20:49:00.954Z,3.13
2023-02-01T20:50:34.423Z,2.80
2023-02-01T20:52:06.000Z,3.33
2023-02-01T20:53:37.654Z,2.90
2023-02-01T20:55:09.578Z,3.33
2023-02-01T20:56:41.180Z,2.97
2023-02-01T20:58:16.852Z,2.60
2023-02-01T20:59:49.281Z,2.67
2023-02-01T21:01:20.920Z,2.97
2023-02-01T21:02:52.591Z,3.00
2023-02-01T21:04:27.165Z,2.80
2023-02-01T21:06:04.522Z,3.33
2023-02-01T21:07:36.282Z,2.95
2023-02-01T21:09:07.852Z,3.00
2023-02-01T21:10:39.903Z,3.08